sensor_id;sensor_type;location;lat;lon;timestamp;pressure;altitude;pressure_sealevel;temperature;humidity
84770;BME280;75001;51.082;17.008;2024-01-30T00:09:58;103379.20;;;6.83;49.60
84770;BME280;75001;51.082;17.008;2024-01-30T00:20:09;103373.76;;;6.85;49.58
84770;BME280;75001;51.082;17.008;2024-01-30T00:30:18;103386.37;;;6.39;50.09
84770;BME280;75001;51.082;17.008;2024-01-30T00:40:28;103394.34;;;5.95;50.70
84770;BME280;75001;51.082;17.008;2024-01-30T00:50:38;103384.09;;;5.55;51.28
84770;BME280;75001;51.082;17.008;2024-01-30T01:00:48;103383.81;;;5.37;51.67
84770;BME280;75001;51.082;17.008;2024-01-30T01:10:58;103389.09;;;5.40;52.14
84770;BME280;75001;51.082;17.008;2024-01-30T01:21:08;103393.09;;;5.29;52.08
84770;BME280;75001;51.082;17.008;2024-01-30T01:31:18;103382.05;;;5.36;52.19
84770;BME280;75001;51.082;17.008;2024-01-30T01:41:32;103374.31;;;5.27;52.40
84770;BME280;75001;51.082;17.008;2024-01-30T01:51:39;103382.59;;;5.46;52.30
84770;BME280;75001;51.082;17.008;2024-01-30T02:01:48;103378.10;;;5.46;52.31
84770;BME280;75001;51.082;17.008;2024-01-30T02:11:59;103364.52;;;5.25;52.76
84770;BME280;75001;51.082;17.008;2024-01-30T02:22:09;103361.94;;;5.46;52.78
84770;BME280;75001;51.082;17.008;2024-01-30T02:32:18;103363.02;;;5.91;52.44
84770;BME280;75001;51.082;17.008;2024-01-30T02:42:28;103358.98;;;6.04;52.29
84770;BME280;75001;51.082;17.008;2024-01-30T02:52:38;103362.88;;;6.19;52.14
84770;BME280;75001;51.082;17.008;2024-01-30T03:02:49;103365.17;;;6.30;51.85
84770;BME280;75001;51.082;17.008;2024-01-30T03:12:59;103354.39;;;6.30;51.83
84770;BME280;75001;51.082;17.008;2024-01-30T03:23:09;103352.87;;;6.23;51.95
84770;BME280;75001;51.082;17.008;2024-01-30T03:33:19;103343.69;;;6.28;51.91
84770;BME280;75001;51.082;17.008;2024-01-30T03:43:29;103349.18;;;6.25;51.98
84770;BME280;75001;51.082;17.008;2024-01-30T03:53:39;103334.67;;;6.06;52.17
84770;BME280;75001;51.082;17.008;2024-01-30T04:03:49;103339.94;;;6.09;52.15
84770;BME280;75001;51.082;17.008;2024-01-30T04:13:59;103348.42;;;5.98;52.21
84770;BME280;75001;51.082;17.008;2024-01-30T04:24:09;103342.70;;;5.82;52.33
84770;BME280;75001;51.082;17.008;2024-01-30T04:34:19;103343.14;;;5.95;52.40
84770;BME280;75001;51.082;17.008;2024-01-30T04:44:29;103349.11;;;6.03;52.32
84770;BME280;75001;51.082;17.008;2024-01-30T04:54:39;103356.04;;;6.10;52.32
84770;BME280;75001;51.082;17.008;2024-01-30T05:04:49;103348.72;;;6.14;52.25
84770;BME280;75001;51.082;17.008;2024-01-30T05:14:59;103355.23;;;6.08;52.38
84770;BME280;75001;51.082;17.008;2024-01-30T05:25:09;103348.98;;;6.08;52.38
84770;BME280;75001;51.082;17.008;2024-01-30T05:35:19;103346.66;;;5.97;52.53
84770;BME280;75001;51.082;17.008;2024-01-30T05:45:29;103362.20;;;5.89;52.65
84770;BME280;75001;51.082;17.008;2024-01-30T05:55:39;103359.73;;;5.83;52.75
84770;BME280;75001;51.082;17.008;2024-01-30T06:05:49;103355.01;;;5.89;52.68
84770;BME280;75001;51.082;17.008;2024-01-30T06:15:59;103361.80;;;5.76;52.80
84770;BME280;75001;51.082;17.008;2024-01-30T06:26:09;103359.42;;;5.67;52.89
84770;BME280;75001;51.082;17.008;2024-01-30T06:36:19;103359.88;;;5.80;52.84
84770;BME280;75001;51.082;17.008;2024-01-30T06:46:29;103355.70;;;5.96;52.68
84770;BME280;75001;51.082;17.008;2024-01-30T06:56:39;103361.39;;;6.12;52.44
84770;BME280;75001;51.082;17.008;2024-01-30T07:06:49;103363.24;;;6.10;52.35
84770;BME280;75001;51.082;17.008;2024-01-30T07:16:59;103357.97;;;6.07;52.28
84770;BME280;75001;51.082;17.008;2024-01-30T07:27:09;103369.21;;;6.18;52.15
84770;BME280;75001;51.082;17.008;2024-01-30T07:37:19;103371.70;;;6.24;52.17
84770;BME280;75001;51.082;17.008;2024-01-30T07:47:29;103380.62;;;6.48;51.92
84770;BME280;75001;51.082;17.008;2024-01-30T07:57:39;103373.62;;;6.66;51.79
84770;BME280;75001;51.082;17.008;2024-01-30T08:07:50;103366.73;;;6.81;51.60
84770;BME280;75001;51.082;17.008;2024-01-30T08:17:59;103366.86;;;7.20;51.03
84770;BME280;75001;51.082;17.008;2024-01-30T08:28:09;103363.15;;;7.84;50.41
84770;BME280;75001;51.082;17.008;2024-01-30T08:38:19;103351.54;;;8.40;49.60
84770;BME280;75001;51.082;17.008;2024-01-30T08:48:29;103353.64;;;8.71;48.73
84770;BME280;75001;51.082;17.008;2024-01-30T08:58:39;103350.37;;;8.82;48.18
84770;BME280;75001;51.082;17.008;2024-01-30T09:08:49;103351.61;;;9.11;47.75
84770;BME280;75001;51.082;17.008;2024-01-30T09:18:59;103347.89;;;9.48;46.93
84770;BME280;75001;51.082;17.008;2024-01-30T09:29:09;103340.23;;;9.89;46.04
84770;BME280;75001;51.082;17.008;2024-01-30T09:39:20;103340.15;;;10.40;45.02
84770;BME280;75001;51.082;17.008;2024-01-30T09:49:37;103330.59;;;10.64;44.97
84770;BME280;75001;51.082;17.008;2024-01-30T09:59:42;103320.36;;;11.30;43.37
84770;BME280;75001;51.082;17.008;2024-01-30T10:09:50;103311.09;;;11.62;42.56
84770;BME280;75001;51.082;17.008;2024-01-30T10:20:04;103294.16;;;11.87;42.38
84770;BME280;75001;51.082;17.008;2024-01-30T10:30:11;103281.97;;;12.22;41.72
84770;BME280;75001;51.082;17.008;2024-01-30T10:40:21;103284.86;;;12.33;41.08
84770;BME280;75001;51.082;17.008;2024-01-30T10:50:32;103275.46;;;12.24;40.51
84770;BME280;75001;51.082;17.008;2024-01-30T11:00:41;103252.76;;;12.38;40.64
84770;BME280;75001;51.082;17.008;2024-01-30T11:10:56;103242.51;;;12.56;40.12
84770;BME280;75001;51.082;17.008;2024-01-30T11:21:01;103235.48;;;12.79;39.76
84770;BME280;75001;51.082;17.008;2024-01-30T11:31:18;103232.20;;;12.74;39.16
84770;BME280;75001;51.082;17.008;2024-01-30T11:41:22;103218.58;;;12.74;38.77
84770;BME280;75001;51.082;17.008;2024-01-30T11:51:32;103201.47;;;12.72;38.94
84770;BME280;75001;51.082;17.008;2024-01-30T12:01:41;103193.09;;;12.75;38.70
84770;BME280;75001;51.082;17.008;2024-01-30T12:11:51;103174.80;;;12.77;38.12
84770;BME280;75001;51.082;17.008;2024-01-30T12:22:01;103173.68;;;12.67;37.82
84770;BME280;75001;51.082;17.008;2024-01-30T12:32:17;103155.81;;;12.62;38.18
84770;BME280;75001;51.082;17.008;2024-01-30T12:42:24;103148.76;;;12.20;39.39
84770;BME280;75001;51.082;17.008;2024-01-30T12:52:35;103150.73;;;12.31;38.68
84770;BME280;75001;51.082;17.008;2024-01-30T13:02:44;103148.52;;;12.23;38.78
84770;BME280;75001;51.082;17.008;2024-01-30T13:12:54;103139.80;;;12.18;39.20
84770;BME280;75001;51.082;17.008;2024-01-30T13:23:04;103133.94;;;12.11;39.52
84770;BME280;75001;51.082;17.008;2024-01-30T13:33:14;103128.34;;;12.00;40.14
84770;BME280;75001;51.082;17.008;2024-01-30T13:43:24;103123.09;;;11.97;40.17
84770;BME280;75001;51.082;17.008;2024-01-30T13:53:34;103126.49;;;12.01;40.18
84770;BME280;75001;51.082;17.008;2024-01-30T14:03:44;103106.30;;;11.91;40.33
84770;BME280;75001;51.082;17.008;2024-01-30T14:13:54;103114.77;;;11.86;40.67
84770;BME280;75001;51.082;17.008;2024-01-30T14:24:05;103103.89;;;11.86;41.09
84770;BME280;75001;51.082;17.008;2024-01-30T14:34:14;103111.34;;;11.82;41.24
84770;BME280;75001;51.082;17.008;2024-01-30T14:44:24;103108.77;;;11.67;41.51
84770;BME280;75001;51.082;17.008;2024-01-30T14:54:34;103104.51;;;11.62;41.86
84770;BME280;75001;51.082;17.008;2024-01-30T15:04:44;103104.73;;;11.45;42.00
84770;BME280;75001;51.082;17.008;2024-01-30T15:14:54;103101.47;;;11.26;42.33
84770;BME280;75001;51.082;17.008;2024-01-30T15:31:25;103108.14;;;10.63;43.19
84770;BME280;75001;51.082;17.008;2024-01-30T15:41:35;103112.71;;;10.62;43.23
84770;BME280;75001;51.082;17.008;2024-01-30T15:51:45;103118.49;;;10.56;43.57
84770;BME280;75001;51.082;17.008;2024-01-30T16:01:55;103124.95;;;10.39;43.93
84770;BME280;75001;51.082;17.008;2024-01-30T16:12:06;103124.01;;;10.25;44.38
84770;BME280;75001;51.082;17.008;2024-01-30T16:22:15;103127.84;;;10.21;44.54
84770;BME280;75001;51.082;17.008;2024-01-30T16:32:25;103140.21;;;10.10;44.61
84770;BME280;75001;51.082;17.008;2024-01-30T16:42:35;103145.31;;;10.01;44.72
84770;BME280;75001;51.082;17.008;2024-01-30T16:52:48;103153.26;;;9.88;44.86
84770;BME280;75001;51.082;17.008;2024-01-30T17:02:58;103162.67;;;9.33;45.50
84770;BME280;75001;51.082;17.008;2024-01-30T17:13:08;103157.55;;;9.45;45.49
84770;BME280;75001;51.082;17.008;2024-01-30T17:23:18;103162.26;;;9.41;45.88
84770;BME280;75001;51.082;17.008;2024-01-30T17:33:28;103158.74;;;9.39;46.09
84770;BME280;75001;51.082;17.008;2024-01-30T17:43:38;103155.68;;;9.29;46.21
84770;BME280;75001;51.082;17.008;2024-01-30T17:53:48;103152.67;;;9.18;46.42
84770;BME280;75001;51.082;17.008;2024-01-30T18:03:58;103154.56;;;9.00;46.60
84770;BME280;75001;51.082;17.008;2024-01-30T18:14:08;103148.22;;;8.84;46.71
84770;BME280;75001;51.082;17.008;2024-01-30T18:24:21;103142.90;;;8.65;46.95
84770;BME280;75001;51.082;17.008;2024-01-30T18:34:28;103146.14;;;8.54;47.12
84770;BME280;75001;51.082;17.008;2024-01-30T23:39:32;103203.37;;;7.14;55.83
84770;BME280;75001;51.082;17.008;2024-01-30T23:49:40;103195.24;;;7.35;54.83
84770;BME280;75001;51.082;17.008;2024-01-30T23:59:49;103182.10;;;7.84;54.02
